Time;durP1;ratioP1;P1;durP2;ratioP2;P2;SDS_P1;SDS_P2;PMS_P1;PMS_P2;Temp;Humidity;BMP_temperature;BMP_pressure;BME280_temperature;BME280_humidity;BME280_pressure;Samples;Min_cycle;Max_cycle;Signal;HPM_P1;HPM_P2
2023/04/18 00:02:19;;;;;;;18.43;16.60;;;7.70;99.90;;;;;;5059330;28;20267;-47
2023/04/18 00:04:45;;;;;;;15.17;13.67;;;8.00;99.90;;;;;;5057977;28;20190;-48
2023/04/18 00:07:13;;;;;;;18.37;16.57;;;8.40;99.90;;;;;;5058723;28;20757;-47
2023/04/18 00:09:40;;;;;;;18.43;16.40;;;8.60;99.90;;;;;;5058271;28;20456;-45
2023/04/18 00:12:05;;;;;;;19.33;17.40;;;8.60;28.40;;;;;;5059318;28;20412;-45
2023/04/18 00:14:33;;;;;;;17.70;16.00;;;8.60;1.00;;;;;;5059041;28;20478;-44
2023/04/18 00:17:01;;;;;;;21.10;18.27;;;8.50;1.00;;;;;;5058587;28;20420;-44
2023/04/18 00:19:26;;;;;;;18.57;16.67;;;8.50;1.00;;;;;;5058780;28;20440;-42
2023/04/18 00:21:52;;;;;;;18.57;16.60;;;8.40;1.00;;;;;;5059246;28;20876;-44
2023/04/18 00:24:18;;;;;;;20.23;18.23;;;8.30;1.00;;;;;;5059795;28;20204;-43
2023/04/18 00:26:44;;;;;;;19.33;17.17;;;8.20;1.00;;;;;;5059409;28;20283;-44
2023/04/18 00:29:10;;;;;;;20.90;18.70;;;8.10;1.00;;;;;;5058957;28;20812;-45
2023/04/18 00:31:35;;;;;;;18.03;16.13;;;8.10;1.00;;;;;;5059661;28;20185;-44
2023/04/18 00:34:01;;;;;;;19.57;17.23;;;8.00;1.00;;;;;;5058559;28;20575;-45
2023/04/18 00:36:26;;;;;;;19.13;17.10;;;8.00;1.00;;;;;;5058848;28;20205;-44
2023/04/18 00:38:52;;;;;;;19.47;17.53;;;8.00;1.00;;;;;;5059580;28;20209;-44
2023/04/18 00:41:18;;;;;;;19.40;17.57;;;7.90;1.00;;;;;;5060177;28;20174;-46
2023/04/18 00:43:44;;;;;;;21.50;18.97;;;7.90;1.70;;;;;;5059484;28;20285;-44
2023/04/18 00:46:10;;;;;;;19.10;17.10;;;7.90;7.10;;;;;;5059747;28;20466;-44
2023/04/18 00:48:37;;;;;;;20.00;17.90;;;7.90;23.50;;;;;;5058893;28;20177;-46
2023/04/18 00:51:07;;;;;;;20.00;16.60;;;7.80;16.40;;;;;;5059291;28;20178;-44
2023/04/18 00:53:32;;;;;;;19.30;17.20;;;7.80;52.20;;;;;;5057935;28;20671;-43
2023/04/18 00:55:58;;;;;;;18.90;17.00;;;7.80;38.20;;;;;;5059288;28;20446;-43
2023/04/18 00:58:24;;;;;;;20.80;17.50;;;7.80;70.40;;;;;;5058781;28;20174;-45
2023/04/18 01:00:49;;;;;;;21.13;19.00;;;7.80;99.90;;;;;;5059201;28;20272;-43
2023/04/18 01:03:17;;;;;;;19.67;17.60;;;7.80;99.90;;;;;;5058303;28;20245;-45
2023/04/18 01:05:43;;;;;;;20.80;17.43;;;7.70;99.90;;;;;;5058351;28;20281;-43
2023/04/18 01:08:09;;;;;;;19.53;17.47;;;7.70;99.90;;;;;;5058597;28;20562;-45
2023/04/18 01:10:36;;;;;;;18.93;16.93;;;7.70;99.90;;;;;;5057464;28;20742;-44
2023/04/18 01:13:18;;;;;;;20.40;18.27;;;7.80;99.90;;;;;;5058427;28;20408;-43
2023/04/18 01:15:46;;;;;;;22.77;19.43;;;7.80;99.90;;;;;;5055651;28;20494;-45
2023/04/18 01:18:15;;;;;;;21.70;17.63;;;7.70;99.90;;;;;;5056361;28;20404;-44
2023/04/18 01:20:45;;;;;;;20.10;18.00;;;7.70;99.90;;;;;;5057041;28;20613;-46
2023/04/18 01:23:11;;;;;;;21.43;17.67;;;7.70;99.90;;;;;;5057351;28;20404;-45
2023/04/18 01:25:38;;;;;;;21.47;19.13;;;7.70;99.90;;;;;;5056215;28;20424;-44
2023/04/18 01:28:04;;;;;;;20.00;17.97;;;7.70;99.90;;;;;;5054623;28;20503;-44
2023/04/18 01:30:32;;;;;;;18.93;16.60;;;7.70;99.90;;;;;;5057347;28;20489;-45
2023/04/18 01:32:59;;;;;;;22.47;19.93;;;7.70;99.90;;;;;;5056238;28;20494;-43
2023/04/18 01:35:24;;;;;;;24.07;18.33;;;7.70;99.90;;;;;;5057455;28;20444;-43
2023/04/18 01:37:50;;;;;;;20.77;18.57;;;7.70;99.90;;;;;;5057347;28;20464;-43
2023/04/18 01:40:15;;;;;;;21.17;18.87;;;7.70;99.90;;;;;;5055696;28;20563;-43
2023/04/18 01:42:41;;;;;;;21.03;17.50;;;7.70;99.90;;;;;;5057046;28;20200;-45
2023/04/18 01:45:07;;;;;;;20.50;18.40;;;7.60;99.90;;;;;;5058421;28;20177;-43
2023/04/18 01:47:32;;;;;;;20.80;18.07;;;7.60;99.90;;;;;;5058200;28;20205;-45
2023/04/18 01:49:58;;;;;;;18.70;16.90;;;7.60;99.90;;;;;;5057585;28;20208;-46
2023/04/18 01:52:24;;;;;;;20.03;18.03;;;7.60;99.90;;;;;;5057851;28;20178;-44
2023/04/18 01:54:49;;;;;;;20.67;18.13;;;7.60;99.90;;;;;;5058141;28;20441;-43
2023/04/18 01:57:15;;;;;;;19.87;17.77;;;7.60;99.90;;;;;;5057893;28;20186;-44
2023/04/18 01:59:40;;;;;;;20.43;17.90;;;7.70;99.90;;;;;;5057301;28;20190;-43
2023/04/18 02:02:06;;;;;;;21.77;16.93;;;7.60;99.90;;;;;;5057241;28;20182;-47
2023/04/18 02:04:32;;;;;;;19.60;17.47;;;7.60;99.90;;;;;;5056730;28;20387;-48
2023/04/18 02:06:57;;;;;;;17.70;15.90;;;7.70;99.90;;;;;;5055846;28;20531;-43
2023/04/18 02:09:23;;;;;;;19.80;17.30;;;7.70;99.90;;;;;;5055549;28;20470;-43
2023/04/18 02:11:49;;;;;;;19.23;17.20;;;7.70;99.90;;;;;;5056236;28;20190;-47
2023/04/18 02:14:14;;;;;;;19.40;17.53;;;7.70;99.90;;;;;;5056193;28;20430;-46
2023/04/18 02:16:40;;;;;;;18.67;16.70;;;7.70;99.90;;;;;;5056068;28;20186;-44
2023/04/18 02:19:05;;;;;;;18.37;16.57;;;7.70;99.90;;;;;;5057489;28;20251;-44
2023/04/18 02:21:31;;;;;;;18.70;16.73;;;7.70;99.90;;;;;;5056922;28;20198;-44
2023/04/18 02:23:56;;;;;;;18.70;15.90;;;7.70;99.90;;;;;;5057022;28;20185;-45
2023/04/18 02:26:22;;;;;;;18.30;15.90;;;7.70;99.90;;;;;;5054308;28;20229;-44
2023/04/18 02:28:48;;;;;;;16.43;14.73;;;7.70;99.90;;;;;;5053974;28;20205;-43
2023/04/18 02:31:14;;;;;;;19.47;17.37;;;7.70;99.90;;;;;;5055468;28;20252;-43
2023/04/18 02:33:41;;;;;;;18.07;16.23;;;7.70;99.90;;;;;;5054250;28;20169;-43
2023/04/18 02:36:07;;;;;;;17.70;15.90;;;7.70;99.90;;;;;;5055142;28;20436;-45
2023/04/18 02:38:33;;;;;;;18.50;16.50;;;7.70;99.90;;;;;;5055226;28;20461;-43
2023/04/18 02:40:58;;;;;;;18.90;16.97;;;7.70;99.90;;;;;;5055450;28;20239;-44
2023/04/18 02:43:24;;;;;;;18.47;16.27;;;7.70;99.90;;;;;;5055054;28;20162;-45
2023/04/18 02:45:49;;;;;;;18.97;16.50;;;7.60;99.90;;;;;;5054681;28;20173;-44
2023/04/18 02:48:15;;;;;;;17.67;15.87;;;7.60;99.90;;;;;;5056095;28;20760;-44
2023/04/18 02:50:40;;;;;;;19.80;17.60;;;7.60;99.90;;;;;;5056502;28;20213;-43
2023/04/18 02:53:06;;;;;;;19.57;16.40;;;7.60;99.90;;;;;;5055436;28;20466;-43
2023/04/18 02:55:32;;;;;;;18.47;15.50;;;7.60;99.90;;;;;;5053256;28;20259;-43
2023/04/18 02:57:57;;;;;;;23.20;18.00;;;7.50;99.90;;;;;;5055131;28;20188;-43
2023/04/18 03:00:23;;;;;;;19.50;16.60;;;7.60;99.90;;;;;;5056511;28;20540;-44
2023/04/18 03:02:49;;;;;;;17.83;15.90;;;7.60;99.90;;;;;;5055432;28;20201;-44
2023/04/18 03:05:15;;;;;;;18.83;16.63;;;7.60;99.90;;;;;;5054964;28;20176;-43
2023/04/18 03:07:41;;;;;;;18.27;15.70;;;7.50;99.90;;;;;;5055261;28;20442;-43
2023/04/18 03:10:06;;;;;;;19.60;17.60;;;7.50;99.90;;;;;;5054244;28;20874;-45
2023/04/18 03:12:32;;;;;;;20.63;16.73;;;7.50;99.90;;;;;;5054394;28;20182;-43
2023/04/18 03:14:58;;;;;;;17.30;15.50;;;7.50;99.90;;;;;;5054089;28;20181;-46
2023/04/18 03:17:23;;;;;;;18.97;16.90;;;7.50;99.90;;;;;;5053333;28;20260;-44
2023/04/18 03:19:49;;;;;;;19.27;17.27;;;7.50;99.90;;;;;;5053579;28;20181;-44
2023/04/18 03:22:15;;;;;;;20.30;18.07;;;7.50;99.90;;;;;;5052967;28;20571;-45
2023/04/18 03:24:40;;;;;;;19.63;17.50;;;7.50;99.90;;;;;;5053955;28;20177;-44
2023/04/18 03:27:06;;;;;;;20.00;16.97;;;7.50;99.90;;;;;;5054965;28;20514;-45
2023/04/18 03:29:32;;;;;;;21.10;17.90;;;7.50;99.90;;;;;;5055821;28;20209;-42
2023/04/18 03:31:57;;;;;;;20.77;18.57;;;7.50;99.90;;;;;;5056573;28;20178;-45
2023/04/18 03:34:23;;;;;;;22.37;18.73;;;7.50;99.90;;;;;;5055527;28;20532;-44
2023/04/18 03:36:49;;;;;;;21.00;17.20;;;7.50;99.90;;;;;;5055404;28;20277;-48
2023/04/18 03:39:14;;;;;;;20.30;17.47;;;7.50;99.90;;;;;;5052576;28;20265;-45
2023/04/18 03:41:40;;;;;;;20.60;18.40;;;7.50;99.90;;;;;;5051345;28;20786;-43
2023/04/18 03:44:05;;;;;;;22.33;19.93;;;7.40;99.90;;;;;;5052560;28;20189;-43
2023/04/18 03:46:31;;;;;;;20.47;18.37;;;7.40;99.90;;;;;;5053982;28;20265;-45
2023/04/18 03:48:57;;;;;;;18.77;16.87;;;7.40;99.90;;;;;;5053900;28;20517;-45
2023/04/18 03:51:22;;;;;;;22.77;17.50;;;7.30;99.90;;;;;;5053681;28;20587;-43
2023/04/18 03:53:48;;;;;;;21.17;18.97;;;7.40;99.90;;;;;;5053169;28;20253;-43
2023/04/18 03:56:13;;;;;;;20.40;18.30;;;7.30;99.90;;;;;;5053717;28;20474;-45
2023/04/18 03:58:39;;;;;;;19.77;16.67;;;7.30;99.90;;;;;;5054291;28;20170;-44
2023/04/18 04:01:06;;;;;;;22.37;18.40;;;7.30;99.90;;;;;;5054584;28;20186;-45
2023/04/18 04:03:32;;;;;;;21.10;18.80;;;7.30;99.90;;;;;;5055620;28;20166;-44
2023/04/18 04:05:57;;;;;;;17.73;15.93;;;7.30;99.90;;;;;;5057622;28;20733;-43
2023/04/18 04:08:23;;;;;;;18.10;16.20;;;7.20;99.90;;;;;;5058406;28;20272;-45
2023/04/18 04:10:48;;;;;;;19.30;17.07;;;7.20;99.90;;;;;;5059137;28;20486;-43
2023/04/18 04:13:14;;;;;;;19.90;17.80;;;7.20;99.90;;;;;;5058241;28;20186;-44
2023/04/18 04:15:40;;;;;;;17.40;15.57;;;7.20;99.90;;;;;;5058204;28;20165;-43
2023/04/18 04:18:06;;;;;;;19.47;17.47;;;7.20;99.90;;;;;;5056866;28;20178;-43
2023/04/18 04:20:31;;;;;;;21.53;19.20;;;7.30;99.90;;;;;;5058593;28;20173;-45
2023/04/18 04:22:58;;;;;;;20.67;18.10;;;7.20;99.90;;;;;;5058324;28;20440;-43
2023/04/18 04:25:27;;;;;;;23.00;18.20;;;7.20;99.90;;;;;;5057068;28;20193;-45
2023/04/18 04:27:53;;;;;;;21.50;18.13;;;7.20;99.90;;;;;;5057340;28;20490;-43
2023/04/18 04:30:19;;;;;;;20.37;18.20;;;7.20;99.90;;;;;;5055371;28;20479;-43
2023/04/18 04:32:46;;;;;;;21.20;18.93;;;7.20;99.90;;;;;;5056245;28;20439;-43
2023/04/18 04:35:12;;;;;;;19.97;17.67;;;7.10;99.90;;;;;;5055615;28;20412;-45
2023/04/18 04:37:39;;;;;;;17.90;16.10;;;7.10;99.90;;;;;;5055344;28;20442;-44
2023/04/18 04:40:07;;;;;;;21.87;18.47;;;7.10;99.90;;;;;;5055882;28;20438;-43
2023/04/18 04:42:34;;;;;;;21.67;19.00;;;7.20;99.90;;;;;;5053124;28;20438;-46
2023/04/18 04:45:01;;;;;;;20.27;17.97;;;7.20;99.90;;;;;;5055592;28;20493;-44
2023/04/18 04:47:26;;;;;;;18.40;16.40;;;7.20;99.90;;;;;;5055853;28;20420;-44
2023/04/18 04:49:52;;;;;;;19.87;17.87;;;7.20;99.90;;;;;;5055062;28;20555;-43
2023/04/18 04:52:18;;;;;;;19.60;17.50;;;7.20;99.90;;;;;;5052353;28;20197;-43
2023/04/18 04:54:44;;;;;;;20.07;17.37;;;7.10;99.90;;;;;;5049518;28;20178;-43
2023/04/18 04:57:10;;;;;;;22.37;18.97;;;7.10;99.90;;;;;;5049188;28;20216;-43
2023/04/18 04:59:35;;;;;;;21.27;18.40;;;7.10;99.90;;;;;;5054003;28;20443;-42
2023/04/18 05:02:01;;;;;;;19.40;17.07;;;7.00;99.90;;;;;;5053965;28;20186;-44
2023/04/18 05:04:27;;;;;;;23.27;18.57;;;7.00;99.90;;;;;;5053341;28;20181;-44
2023/04/18 05:06:52;;;;;;;20.60;18.50;;;7.00;99.90;;;;;;5052950;28;20268;-44
2023/04/18 05:09:18;;;;;;;21.43;18.30;;;7.00;99.90;;;;;;5051213;28;20290;-43
2023/04/18 05:11:48;;;;;;;21.67;18.30;;;7.00;99.90;;;;;;5051003;28;20515;-44
2023/04/18 05:14:16;;;;;;;25.00;20.30;;;7.00;99.90;;;;;;5052041;28;20481;-43
2023/04/18 05:16:43;;;;;;;20.13;17.60;;;7.10;99.90;;;;;;5051927;28;20853;-44
2023/04/18 05:19:09;;;;;;;21.73;19.23;;;7.10;99.90;;;;;;5049316;28;20490;-45
2023/04/18 05:21:34;;;;;;;20.10;17.87;;;7.00;99.90;;;;;;5048549;28;20753;-46
2023/04/18 05:24:00;;;;;;;20.40;18.20;;;7.00;99.90;;;;;;5050972;28;20216;-45
2023/04/18 05:26:26;;;;;;;19.80;17.73;;;7.10;99.90;;;;;;5049285;28;20268;-44
2023/04/18 05:28:51;;;;;;;19.97;17.90;;;7.10;99.90;;;;;;5048583;28;20448;-44
2023/04/18 05:31:17;;;;;;;19.90;17.80;;;7.20;99.90;;;;;;5049711;28;20567;-44
2023/04/18 05:33:43;;;;;;;19.60;17.50;;;7.20;99.90;;;;;;5050261;28;20205;-43
2023/04/18 05:36:08;;;;;;;19.70;17.70;;;7.20;99.90;;;;;;5046601;28;20193;-47
2023/04/18 05:38:34;;;;;;;20.83;17.90;;;7.30;99.90;;;;;;5049238;28;20255;-43
2023/04/18 05:41:01;;;;;;;20.60;18.40;;;7.30;99.90;;;;;;5049132;28;20175;-45
2023/04/18 05:43:27;;;;;;;21.37;18.10;;;7.30;99.90;;;;;;5047995;28;20251;-43
2023/04/18 05:45:53;;;;;;;22.50;18.17;;;7.30;99.90;;;;;;5047875;28;20420;-45
2023/04/18 05:48:18;;;;;;;20.53;18.03;;;7.30;99.90;;;;;;5048692;28;20774;-45
2023/04/18 05:50:44;;;;;;;21.03;17.33;;;7.40;99.90;;;;;;5053027;28;20201;-46
2023/04/18 05:53:10;;;;;;;19.53;17.43;;;7.40;99.90;;;;;;5051446;28;20218;-44
2023/04/18 05:55:36;;;;;;;19.20;17.17;;;7.40;99.90;;;;;;5048210;28;20849;-44
2023/04/18 05:58:01;;;;;;;21.10;18.90;;;7.40;99.90;;;;;;5048681;28;20509;-43
2023/04/18 06:00:27;;;;;;;19.83;17.77;;;7.40;99.90;;;;;;5049677;28;20236;-44
2023/04/18 06:02:52;;;;;;;19.70;17.53;;;7.40;99.90;;;;;;5050199;28;20192;-50
2023/04/18 06:05:18;;;;;;;21.87;19.10;;;7.40;99.90;;;;;;5048439;28;20295;-46
2023/04/18 06:07:44;;;;;;;20.03;17.90;;;7.40;99.90;;;;;;5048783;28;20554;-42
2023/04/18 06:10:12;;;;;;;23.40;19.47;;;7.40;99.90;;;;;;5049062;28;20574;-42
2023/04/18 06:12:38;;;;;;;20.17;17.50;;;7.50;99.90;;;;;;5049078;28;20174;-43
2023/04/18 06:15:04;;;;;;;19.73;17.73;;;7.60;99.90;;;;;;5049519;28;20710;-45
2023/04/18 06:17:30;;;;;;;20.03;17.90;;;7.60;99.90;;;;;;5045898;28;20428;-44
2023/04/18 06:19:55;;;;;;;19.80;17.40;;;7.60;99.90;;;;;;5031745;28;20420;-43
2023/04/18 06:22:21;;;;;;;20.03;17.90;;;7.70;99.90;;;;;;5050337;28;20185;-45
2023/04/18 06:24:47;;;;;;;22.83;19.47;;;7.70;99.90;;;;;;5050762;28;20185;-43
2023/04/18 06:27:12;;;;;;;21.37;19.03;;;7.80;99.90;;;;;;5051217;28;20287;-45
2023/04/18 06:29:38;;;;;;;20.20;18.20;;;7.80;54.40;;;;;;5053136;28;20690;-45
2023/04/18 06:32:05;;;;;;;22.37;19.10;;;7.80;1.00;;;;;;5052789;28;20433;-45
2023/04/18 06:34:30;;;;;;;20.10;18.10;;;7.80;1.70;;;;;;5052750;28;20205;-45
2023/04/18 06:36:56;;;;;;;20.13;18.03;;;7.90;1.50;;;;;;5054904;28;20456;-45
2023/04/18 06:39:21;;;;;;;21.90;19.50;;;7.80;24.70;;;;;;5053209;28;20618;-44
2023/04/18 06:41:48;;;;;;;21.60;19.40;;;7.90;1.00;;;;;;5053708;28;20185;-43
2023/04/18 06:44:14;;;;;;;21.40;19.20;;;7.90;1.00;;;;;;5051588;28;20178;-45
2023/04/18 06:46:39;;;;;;;20.50;18.30;;;7.80;1.00;;;;;;5052348;28;20505;-45
2023/04/18 06:49:05;;;;;;;20.70;18.50;;;7.80;1.00;;;;;;5034986;28;20550;-45
2023/04/18 06:51:31;;;;;;;20.17;17.33;;;7.80;1.30;;;;;;5050653;28;20196;-46
2023/04/18 06:53:56;;;;;;;21.40;18.60;;;7.90;11.40;;;;;;5050089;28;20165;-45
2023/04/18 06:56:22;;;;;;;20.10;17.90;;;7.90;1.00;;;;;;5049035;28;20632;-46
2023/04/18 06:58:48;;;;;;;20.00;17.97;;;8.00;1.00;;;;;;5049783;28;20582;-43
2023/04/18 07:01:14;;;;;;;21.20;19.00;;;8.00;1.00;;;;;;5051292;28;20186;-44
2023/04/18 07:03:40;;;;;;;20.60;18.43;;;8.10;1.00;;;;;;5051582;28;20963;-43
2023/04/18 07:06:07;;;;;;;21.70;19.37;;;8.10;1.00;;;;;;5049659;28;20911;-45
2023/04/18 07:08:34;;;;;;;21.70;19.50;;;8.10;1.00;;;;;;5052423;28;20162;-45
2023/04/18 07:10:59;;;;;;;19.60;17.60;;;8.20;1.00;;;;;;5051484;28;20449;-44
2023/04/18 07:13:25;;;;;;;21.60;17.27;;;8.30;1.00;;;;;;5051345;28;20822;-43
2023/04/18 07:15:50;;;;;;;21.00;18.80;;;8.30;1.00;;;;;;5050936;28;20189;-43
2023/04/18 07:18:16;;;;;;;20.00;17.80;;;8.40;1.00;;;;;;5051911;28;20738;-43
2023/04/18 07:20:42;;;;;;;20.10;17.70;;;8.50;1.00;;;;;;5054738;28;20268;-44
2023/04/18 07:23:09;;;;;;;19.23;17.13;;;8.60;99.90;;;;;;5054590;28;20255;-45
2023/04/18 07:25:35;;;;;;;20.80;18.60;;;8.60;99.90;;;;;;5052551;28;20199;-43
2023/04/18 07:28:00;;;;;;;19.77;17.70;;;8.70;1.00;;;;;;5050902;28;20923;-45
2023/04/18 07:30:26;;;;;;;22.87;18.23;;;8.80;99.90;;;;;;5054789;28;20533;-43
2023/04/18 07:32:52;;;;;;;23.20;19.10;;;8.80;99.90;;;;;;5051873;28;20272;-45
2023/04/18 07:35:17;;;;;;;21.87;19.50;;;8.90;99.90;;;;;;5050689;28;20503;-48
2023/04/18 07:37:43;;;;;;;20.30;17.60;;;8.90;99.90;;;;;;5050075;28;20193;-43
2023/04/18 07:40:09;;;;;;;19.37;17.37;;;8.90;84.80;;;;;;5054277;28;20796;-43
2023/04/18 07:42:35;;;;;;;18.73;16.73;;;8.90;71.20;;;;;;5052741;28;20288;-44
2023/04/18 07:45:00;;;;;;;21.67;19.47;;;8.90;1.00;;;;;;5054261;28;20514;-44
2023/04/18 07:47:27;;;;;;;19.00;17.00;;;9.00;7.50;;;;;;5055301;28;20282;-44
2023/04/18 07:49:53;;;;;;;20.80;18.80;;;9.10;1.00;;;;;;5055312;28;20238;-44
2023/04/18 07:52:18;;;;;;;19.77;16.87;;;9.20;1.00;;;;;;5055860;28;20423;-46
2023/04/18 07:54:45;;;;;;;19.77;17.87;;;9.30;1.00;;;;;;5056760;28;20235;-46
2023/04/18 07:57:11;;;;;;;18.67;16.63;;;9.40;1.00;;;;;;5056025;28;20267;-45
2023/04/18 07:59:36;;;;;;;18.53;16.70;;;9.50;99.90;;;;;;5055505;28;20419;-44
2023/04/18 08:02:02;;;;;;;20.17;16.80;;;9.50;99.90;;;;;;5056730;28;20193;-44
2023/04/18 08:04:27;;;;;;;20.90;17.87;;;9.50;99.90;;;;;;5057626;28;20551;-44
2023/04/18 08:06:53;;;;;;;18.27;16.37;;;9.40;99.90;;;;;;5058169;28;20274;-45
2023/04/18 08:09:20;;;;;;;18.90;16.90;;;9.50;99.90;;;;;;5056507;28;20267;-45
2023/04/18 08:11:46;;;;;;;18.87;16.80;;;9.60;99.90;;;;;;5054730;28;20265;-44
2023/04/18 08:14:12;;;;;;;16.97;15.23;;;9.80;83.30;;;;;;5056883;28;20510;-45
2023/04/18 08:16:38;;;;;;;17.33;15.63;;;9.90;1.00;;;;;;5056957;28;20456;-44
2023/04/18 08:19:04;;;;;;;16.93;15.23;;;9.90;1.00;;;;;;5056645;28;20246;-43
2023/04/18 08:21:30;;;;;;;17.53;15.77;;;10.00;99.90;;;;;;5055077;28;20447;-44
2023/04/18 08:23:56;;;;;;;16.60;14.90;;;9.90;1.00;;;;;;5056551;28;20411;-44
2023/04/18 08:26:22;;;;;;;19.33;17.33;;;9.90;99.90;;;;;;5056508;28;20460;-45
2023/04/18 08:28:47;;;;;;;19.13;16.90;;;9.90;1.00;;;;;;5051961;28;20201;-44
2023/04/18 08:31:15;;;;;;;18.87;15.93;;;9.80;1.00;;;;;;5054618;28;20181;-44
2023/04/18 08:33:40;;;;;;;18.87;16.87;;;9.80;1.00;;;;;;5055060;28;20316;-44
2023/04/18 08:36:06;;;;;;;19.00;17.00;;;9.70;1.00;;;;;;5054148;28;20610;-44
2023/04/18 08:38:32;;;;;;;20.67;18.33;;;9.70;1.00;;;;;;5055596;28;20471;-45
2023/04/18 08:40:57;;;;;;;21.50;18.20;;;9.60;69.70;;;;;;5053607;28;20818;-45
2023/04/18 08:43:24;;;;;;;18.50;16.60;;;9.50;99.90;;;;;;5050948;28;20638;-45
2023/04/18 08:45:51;;;;;;;17.40;15.53;;;9.50;99.90;;;;;;5051288;28;20166;-46
2023/04/18 08:48:17;;;;;;;19.20;17.20;;;9.60;1.00;;;;;;5054104;28;20420;-45
2023/04/18 08:50:43;;;;;;;21.10;17.90;;;9.60;99.90;;;;;;5053196;28;20460;-44
2023/04/18 08:53:09;;;;;;;18.83;16.93;;;9.60;99.90;;;;;;5055599;28;20420;-45
2023/04/18 08:55:36;;;;;;;17.43;15.73;;;9.70;76.80;;;;;;5055805;28;20423;-44
2023/04/18 08:58:03;;;;;;;19.27;17.07;;;9.60;99.90;;;;;;5054772;28;20428;-43
2023/04/18 09:00:29;;;;;;;18.87;17.00;;;9.70;99.90;;;;;;5054681;28;20868;-46
2023/04/18 09:02:57;;;;;;;18.37;16.47;;;9.70;23.70;;;;;;5054017;28;20451;-45
2023/04/18 09:05:25;;;;;;;20.60;18.50;;;9.70;99.90;;;;;;5055293;28;20589;-45
2023/04/18 09:07:52;;;;;;;24.03;16.63;;;9.90;99.90;;;;;;5053880;28;20505;-46
2023/04/18 09:10:31;;;;;;;18.80;16.93;;;9.90;1.00;;;;;;5053627;28;20487;-43
2023/04/18 09:12:57;;;;;;;17.83;16.03;;;10.00;94.10;;;;;;5051996;28;20416;-47
2023/04/18 09:15:25;;;;;;;18.23;16.40;;;10.10;99.90;;;;;;5052567;28;20482;-45
2023/04/18 09:17:52;;;;;;;18.63;16.73;;;10.20;1.00;;;;;;5051864;28;20455;-44
2023/04/18 09:20:42;;;;;;;17.10;14.67;;;10.30;1.00;;;;;;5050842;28;20845;-44
2023/04/18 09:23:09;;;;;;;18.90;16.90;;;10.50;99.90;;;;;;5053847;28;20529;-43
2023/04/18 09:25:45;;;;;;;19.90;17.90;;;10.50;99.90;;;;;;5053320;28;20420;-46
2023/04/18 09:28:25;;;;;;;19.23;17.30;;;10.50;1.00;;;;;;5052044;28;20455;-45
2023/04/18 09:30:51;;;;;;;18.80;16.90;;;10.60;86.10;;;;;;5050306;28;20460;-44
2023/04/18 09:33:26;;;;;;;18.87;16.87;;;10.60;99.90;;;;;;5051575;28;20416;-44
2023/04/18 09:35:52;;;;;;;19.23;17.30;;;10.60;99.90;;;;;;5052214;28;20840;-47
2023/04/18 09:38:18;;;;;;;20.90;16.77;;;10.50;28.50;;;;;;5051085;28;20836;-45
2023/04/18 09:40:44;;;;;;;21.00;17.87;;;10.50;99.90;;;;;;5049895;28;20412;-45
2023/04/18 09:43:19;;;;;;;19.90;17.73;;;10.50;99.90;;;;;;5051132;28;20559;-45
2023/04/18 09:45:48;;;;;;;18.83;16.83;;;10.60;99.90;;;;;;5051685;28;20177;-44
2023/04/18 09:48:14;;;;;;;19.00;17.10;;;10.60;99.90;;;;;;5050819;28;20440;-44
2023/04/18 09:50:40;;;;;;;16.30;14.60;;;10.70;99.90;;;;;;5052861;28;20456;-46
2023/04/18 09:53:07;;;;;;;14.20;12.70;;;10.80;94.30;;;;;;5051373;28;20193;-48
2023/04/18 09:55:33;;;;;;;12.93;11.57;;;11.10;1.00;;;;;;5052439;28;20507;-49
2023/04/18 09:57:59;;;;;;;12.87;11.53;;;11.80;37.70;;;;;;5050364;28;20528;-48
2023/04/18 10:00:26;;;;;;;15.93;12.57;;;12.30;99.90;;;;;;5052187;28;20409;-47
2023/04/18 10:02:56;;;;;;;17.67;15.87;;;13.00;1.00;;;;;;5050874;28;20436;-43
2023/04/18 10:05:25;;;;;;;17.73;16.03;;;13.50;99.90;;;;;;5050778;28;20419;-44
2023/04/18 10:07:51;;;;;;;17.83;16.17;;;13.40;99.90;;;;;;5050742;28;20471;-46
2023/04/18 10:10:17;;;;;;;17.10;15.40;;;13.50;99.90;;;;;;5050391;28;20452;-45
2023/04/18 10:12:43;;;;;;;17.97;16.23;;;13.70;99.90;;;;;;5051048;28;20424;-44
2023/04/18 10:15:10;;;;;;;17.17;15.47;;;14.00;99.90;;;;;;5051449;28;20250;-44
2023/04/18 10:17:42;;;;;;;17.60;15.97;;;14.20;4.80;;;;;;5051280;28;20424;-44
2023/04/18 10:20:11;;;;;;;17.03;15.47;;;14.50;1.00;;;;;;5052657;28;20508;-44
2023/04/18 10:22:37;;;;;;;18.33;16.47;;;14.40;1.00;;;;;;5053469;28;20574;-45
2023/04/18 10:25:03;;;;;;;17.83;16.07;;;14.30;1.00;;;;;;5051327;28;20428;-45
2023/04/18 10:27:47;;;;;;;17.17;15.60;;;14.20;1.00;;;;;;5054009;28;20225;-44
2023/04/18 10:30:17;;;;;;;18.30;16.50;;;13.80;1.00;;;;;;5053134;28;20610;-43
2023/04/18 10:32:45;;;;;;;18.50;16.60;;;13.60;1.00;;;;;;5051750;28;20439;-43
2023/04/18 10:35:11;;;;;;;18.83;17.13;;;13.40;1.00;;;;;;5051439;28;20459;-48
2023/04/18 10:37:50;;;;;;;17.43;15.73;;;13.30;1.00;;;;;;5051130;28;20504;-44
2023/04/18 10:40:16;;;;;;;16.63;15.03;;;13.40;1.00;;;;;;5054294;28;21003;-45
2023/04/18 10:42:47;;;;;;;17.53;15.93;;;13.70;1.00;;;;;;5053764;28;20514;-45
2023/04/18 10:45:20;;;;;;;16.40;14.73;;;14.10;1.00;;;;;;5053316;28;20420;-45
2023/04/18 10:47:46;;;;;;;18.10;15.73;;;14.40;1.00;;;;;;5052889;28;20420;-45
2023/04/18 10:50:11;;;;;;;16.33;14.83;;;14.80;1.00;;;;;;5051554;28;20468;-47
2023/04/18 10:52:37;;;;;;;15.50;13.83;;;15.10;99.90;;;;;;5048529;28;20204;-47
2023/04/18 10:55:10;;;;;;;15.80;14.40;;;15.20;99.90;;;;;;5051012;28;20213;-46
2023/04/18 10:57:40;;;;;;;15.57;14.17;;;15.30;99.90;;;;;;5048890;28;20559;-45
2023/04/18 11:00:10;;;;;;;14.37;13.00;;;15.40;99.90;;;;;;5051403;28;20455;-43
2023/04/18 11:02:37;;;;;;;14.53;13.13;;;15.40;99.90;;;;;;5051261;28;20448;-45
2023/04/18 11:05:05;;;;;;;15.30;13.70;;;15.40;98.00;;;;;;5032086;28;20458;-43
2023/04/18 11:07:45;;;;;;;16.10;14.60;;;15.40;63.50;;;;;;5049052;28;20440;-44
2023/04/18 11:10:11;;;;;;;13.20;12.00;;;15.30;99.90;;;;;;5048984;28;20470;-45
2023/04/18 11:12:39;;;;;;;12.37;11.27;;;15.30;99.90;;;;;;5049745;28;20980;-45
2023/04/18 11:15:22;;;;;;;14.83;13.37;;;15.30;90.10;;;;;;5054685;28;20423;-43
2023/04/18 11:18:02;;;;;;;15.40;14.00;;;15.20;47.40;;;;;;5056429;28;20424;-43
2023/04/18 11:20:36;;;;;;;15.40;14.00;;;15.00;49.60;;;;;;5055225;28;20753;-43
2023/04/18 11:23:03;;;;;;;14.63;13.33;;;14.50;99.30;;;;;;5032925;28;20742;-43
2023/04/18 11:25:31;;;;;;;15.03;13.67;;;14.20;99.90;;;;;;5053766;28;20416;-45
2023/04/18 11:28:00;;;;;;;15.20;13.80;;;14.00;99.90;;;;;;5053809;28;20225;-45
2023/04/18 11:30:27;;;;;;;14.00;12.70;;;13.80;99.90;;;;;;5055703;28;20472;-45
2023/04/18 11:32:55;;;;;;;13.80;12.50;;;13.90;99.90;;;;;;5054441;28;20516;-45
2023/04/18 11:35:21;;;;;;;12.90;11.70;;;14.00;99.90;;;;;;5055669;28;20535;-44
2023/04/18 11:37:48;;;;;;;13.23;12.03;;;14.20;99.90;;;;;;5053342;28;20519;-45
2023/04/18 11:40:14;;;;;;;13.40;12.00;;;14.20;99.90;;;;;;5054411;28;20558;-47
2023/04/18 11:42:40;;;;;;;13.30;11.90;;;14.20;99.90;;;;;;5050147;28;20515;-43
2023/04/18 11:45:13;;;;;;;13.03;11.83;;;14.10;99.90;;;;;;5051552;28;20277;-45
2023/04/18 11:47:40;;;;;;;14.03;12.53;;;14.10;99.90;;;;;;5051129;28;21029;-43
2023/04/18 11:50:07;;;;;;;12.83;11.60;;;13.90;99.90;;;;;;5052583;28;20468;-44
2023/04/18 11:52:34;;;;;;;11.63;10.50;;;14.10;1.00;;;;;;5052563;28;20840;-45
2023/04/18 11:55:17;;;;;;;12.30;11.17;;;14.10;99.90;;;;;;5053374;28;20552;-45
2023/04/18 11:57:49;;;;;;;12.03;10.93;;;14.20;99.90;;;;;;5051821;28;20499;-45
2023/04/18 12:00:15;;;;;;;11.97;10.07;;;14.20;99.90;;;;;;5052145;28;20612;-44
2023/04/18 12:02:44;;;;;;;12.10;11.00;;;14.10;99.90;;;;;;5051761;28;20435;-45
2023/04/18 12:05:10;;;;;;;12.30;11.00;;;14.10;99.90;;;;;;5053800;28;20761;-44
2023/04/18 12:07:40;;;;;;;12.30;11.10;;;13.90;99.90;;;;;;5054108;28;20875;-44
2023/04/18 12:10:23;;;;;;;10.13;9.23;;;13.80;99.90;;;;;;5051575;28;21032;-44
2023/04/18 12:12:51;;;;;;;10.57;9.50;;;13.60;99.90;;;;;;5050516;28;20898;-44
2023/04/18 12:15:17;;;;;;;10.17;9.17;;;13.50;1.00;;;;;;5052317;28;20423;-43
2023/04/18 12:17:45;;;;;;;9.30;8.47;;;13.70;1.00;;;;;;5053354;28;20428;-44
2023/04/18 12:20:12;;;;;;;10.60;9.60;;;13.80;1.00;;;;;;5055444;28;20553;-44
2023/04/18 12:22:44;;;;;;;10.37;9.27;;;14.10;1.00;;;;;;5055724;28;20435;-45
2023/04/18 12:25:22;;;;;;;10.30;9.30;;;14.20;99.90;;;;;;5054146;28;20435;-44
2023/04/18 12:28:22;;;;;;;9.30;8.40;;;14.40;99.90;;;;;;5053046;28;20482;-45
2023/04/18 12:30:47;;;;;;;9.17;8.30;;;15.00;99.90;;;;;;5052697;28;20484;-45
2023/04/18 12:33:13;;;;;;;10.00;9.00;;;15.20;99.90;;;;;;5052165;28;20424;-44
2023/04/18 12:35:38;;;;;;;9.83;8.90;;;15.40;99.90;;;;;;5048581;28;20224;-43
2023/04/18 12:38:04;;;;;;;9.90;8.93;;;15.40;99.90;;;;;;5051162;28;20174;-43